createdAt,value
2018-12-06T00:00:43.147Z,48.15
2018-12-06T00:03:11.497Z,47.68
2018-12-06T00:05:39.808Z,47.61
2018-12-06T00:08:15.741Z,48.79
2018-12-06T00:10:44.440Z,49.86
2018-12-06T00:13:13.744Z,50.19
2018-12-06T00:15:42.076Z,50.61
2018-12-06T00:18:10.481Z,49.39
2018-12-06T00:20:38.920Z,48.62
2018-12-06T00:23:07.509Z,49.13
2018-12-06T00:25:35.861Z,48.53
2018-12-06T00:28:04.254Z,49.36
2018-12-06T00:30:39.359Z,49.21
2018-12-06T00:33:07.711Z,49.83
2018-12-06T00:35:36.027Z,49.25
2018-12-06T00:38:04.698Z,49.56
2018-12-06T00:40:32.966Z,50.61
2018-12-06T00:43:01.410Z,51.25
2018-12-06T00:45:29.862Z,51.97
2018-12-06T00:47:58.167Z,51.17
2018-12-06T00:50:26.509Z,51.15
2018-12-06T00:52:54.840Z,51.40
2018-12-06T00:55:23.160Z,51.05
2018-12-06T00:57:51.486Z,51.91
2018-12-06T01:00:19.996Z,51.88
2018-12-06T01:02:48.275Z,51.15
2018-12-06T01:05:16.581Z,51.51
2018-12-06T01:07:44.970Z,52.63
2018-12-06T01:10:13.448Z,52.13
2018-12-06T01:12:41.821Z,54.26
2018-12-06T01:15:10.130Z,54.96
2018-12-06T01:17:38.504Z,55.56
2018-12-06T01:20:08.211Z,54.05
2018-12-06T01:22:36.761Z,55.21
2018-12-06T01:25:06.468Z,55.72
2018-12-06T01:27:34.809Z,55.71
2018-12-06T01:30:03.325Z,56.92
2018-12-06T01:32:31.828Z,56.61
2018-12-06T01:35:00.391Z,57.01
2018-12-06T01:37:28.758Z,56.72
2018-12-06T01:39:57.193Z,56.45
2018-12-06T01:42:25.819Z,56.96
2018-12-06T01:44:54.235Z,56.29
2018-12-06T01:47:22.783Z,56.57
2018-12-06T01:49:51.168Z,56.96
2018-12-06T01:52:19.543Z,56.35
2018-12-06T01:54:47.965Z,55.88
2018-12-06T01:57:16.484Z,54.10
2018-12-06T01:59:44.985Z,54.77
2018-12-06T02:02:13.366Z,54.31
2018-12-06T02:04:41.760Z,54.17
2018-12-06T02:07:10.028Z,54.48
2018-12-06T02:09:38.509Z,54.09
2018-12-06T02:12:06.861Z,54.87
2018-12-06T02:14:35.230Z,57.22
2018-12-06T02:17:03.757Z,59.28
2018-12-06T02:19:32.185Z,58.03
2018-12-06T02:22:00.565Z,55.03
2018-12-06T02:24:29.110Z,54.92
2018-12-06T02:26:57.469Z,57.24
2018-12-06T02:29:27.742Z,57.21
2018-12-06T02:31:56.360Z,54.62
2018-12-06T02:34:24.675Z,53.79
2018-12-06T02:36:53.120Z,53.41
2018-12-06T02:39:21.425Z,56.24
2018-12-06T02:41:49.995Z,56.87
2018-12-06T02:44:18.406Z,59.39
2018-12-06T02:46:46.666Z,59.22
2018-12-06T02:49:14.964Z,57.27
2018-12-06T02:51:43.294Z,55.73
2018-12-06T02:54:11.876Z,54.27
2018-12-06T02:56:40.184Z,53.97
2018-12-06T02:59:08.663Z,53.19
2018-12-06T03:01:37.143Z,53.48
2018-12-06T03:04:05.545Z,53.32
2018-12-06T03:06:33.807Z,53.27
2018-12-06T03:09:02.081Z,52.81
2018-12-06T03:11:30.503Z,54.73
2018-12-06T03:13:58.783Z,53.59
2018-12-06T03:16:27.114Z,56.42
2018-12-06T03:18:55.748Z,53.55
2018-12-06T03:21:24.062Z,54.55
2018-12-06T03:23:52.424Z,54.65
2018-12-06T03:26:20.862Z,53.45
2018-12-06T03:28:49.349Z,53.04
2018-12-06T03:31:17.768Z,52.33
2018-12-06T03:33:46.104Z,51.94
2018-12-06T03:36:14.502Z,52.13
2018-12-06T03:38:42.962Z,51.94
2018-12-06T03:41:11.480Z,52.21
2018-12-06T03:43:39.794Z,52.01
2018-12-06T03:46:08.394Z,52.82
2018-12-06T03:48:36.701Z,52.66
2018-12-06T03:51:05.050Z,51.58
2018-12-06T03:53:33.314Z,53.07
2018-12-06T03:56:01.668Z,52.92
2018-12-06T03:58:30.070Z,52.46
2018-12-06T04:00:58.454Z,53.71
2018-12-06T04:03:26.807Z,52.44
2018-12-06T04:05:55.163Z,52.98
2018-12-06T04:08:23.477Z,51.98
2018-12-06T04:10:51.827Z,52.91
2018-12-06T04:13:20.232Z,53.39
2018-12-06T04:15:48.665Z,52.90
2018-12-06T04:18:16.988Z,53.57
2018-12-06T04:20:45.281Z,53.93
2018-12-06T04:23:13.593Z,52.97
2018-12-06T04:25:41.937Z,53.57
2018-12-06T04:28:10.329Z,53.36
2018-12-06T04:30:38.762Z,53.01
2018-12-06T04:33:07.286Z,52.88
2018-12-06T04:35:35.613Z,53.36
2018-12-06T04:38:03.993Z,53.61
2018-12-06T04:40:32.455Z,52.52
2018-12-06T04:43:00.779Z,52.87
2018-12-06T04:45:29.071Z,52.98
2018-12-06T04:47:57.402Z,52.74
2018-12-06T04:50:25.967Z,52.15
2018-12-06T04:52:54.316Z,52.76
2018-12-06T04:55:22.821Z,53.14
2018-12-06T04:57:51.144Z,53.09
2018-12-06T05:00:19.489Z,52.63
2018-12-06T05:02:48.021Z,52.50
2018-12-06T05:05:16.466Z,52.57
2018-12-06T05:07:44.832Z,52.78
2018-12-06T05:10:13.264Z,53.15
2018-12-06T05:12:41.674Z,53.16
2018-12-06T05:15:10.193Z,53.29
2018-12-06T05:17:39.087Z,52.86
2018-12-06T05:20:07.455Z,52.55
2018-12-06T05:22:35.948Z,52.78
2018-12-06T05:25:05.571Z,52.75
2018-12-06T05:27:34.076Z,52.46
2018-12-06T05:30:02.346Z,52.26
2018-12-06T05:32:31.075Z,51.58
2018-12-06T05:34:59.440Z,51.93
2018-12-06T05:37:27.730Z,52.04
2018-12-06T05:39:56.242Z,52.31
2018-12-06T05:42:25.331Z,51.96
2018-12-06T05:44:53.681Z,51.75
2018-12-06T05:47:22.012Z,51.03
2018-12-06T05:49:50.529Z,51.27
2018-12-06T05:52:19.052Z,51.32
2018-12-06T05:54:49.577Z,53.04
2018-12-06T05:57:18.058Z,51.80
2018-12-06T05:59:46.355Z,51.92
2018-12-06T06:02:14.679Z,51.55
2018-12-06T06:04:43.173Z,52.15
2018-12-06T06:07:11.473Z,52.00
2018-12-06T06:09:40.182Z,51.73
2018-12-06T06:12:08.664Z,52.65
2018-12-06T06:14:37.196Z,51.85
2018-12-06T06:17:05.568Z,51.61
2018-12-06T06:19:33.929Z,51.87
2018-12-06T06:22:02.256Z,51.41
2018-12-06T06:24:30.610Z,51.75
2018-12-06T06:26:59.322Z,52.17
2018-12-06T06:29:27.714Z,51.33
2018-12-06T06:31:56.140Z,51.66
2018-12-06T06:34:24.474Z,51.97
2018-12-06T06:36:52.831Z,51.60
2018-12-06T06:39:21.186Z,51.79
2018-12-06T06:41:49.462Z,51.23
2018-12-06T06:44:17.822Z,50.91
2018-12-06T06:46:46.338Z,51.82
2018-12-06T06:49:14.688Z,51.52
2018-12-06T06:51:42.960Z,51.61
2018-12-06T06:54:11.382Z,52.23
2018-12-06T06:56:39.659Z,51.28
2018-12-06T06:59:07.949Z,51.25
2018-12-06T07:01:36.702Z,51.72
2018-12-06T07:04:05.351Z,50.93
2018-12-06T07:06:33.761Z,51.37
2018-12-06T07:09:02.175Z,50.83
2018-12-06T07:11:30.467Z,50.75
2018-12-06T07:13:58.816Z,51.38
2018-12-06T07:16:27.233Z,50.28
2018-12-06T07:18:55.618Z,50.94
2018-12-06T07:21:24.357Z,50.87
2018-12-06T07:23:52.852Z,51.23
2018-12-06T07:26:21.845Z,50.64
2018-12-06T07:28:50.246Z,50.58
2018-12-06T07:31:18.642Z,50.52
2018-12-06T07:33:47.760Z,50.89
2018-12-06T07:36:17.519Z,50.37
2018-12-06T07:38:45.865Z,50.70
2018-12-06T07:41:14.348Z,50.64
2018-12-06T07:43:42.607Z,50.29
2018-12-06T07:46:11.766Z,50.97
2018-12-06T07:48:40.046Z,51.01
2018-12-06T07:51:08.431Z,51.35
2018-12-06T07:53:36.754Z,50.15
2018-12-06T07:56:05.165Z,50.06
2018-12-06T07:58:35.090Z,50.21
2018-12-06T08:01:06.975Z,49.60
2018-12-06T08:03:36.789Z,49.84
2018-12-06T08:06:05.148Z,49.94
2018-12-06T08:08:34.406Z,49.78
2018-12-06T08:11:03.474Z,49.33
2018-12-06T08:13:32.588Z,49.68
2018-12-06T08:16:02.263Z,49.58
2018-12-06T08:18:30.655Z,50.49
2018-12-06T08:20:59.574Z,50.49
2018-12-06T08:23:28.282Z,50.75
2018-12-06T08:25:58.053Z,51.98
2018-12-06T08:28:26.366Z,51.31
2018-12-06T08:30:54.652Z,50.99
2018-12-06T08:33:22.930Z,51.04
2018-12-06T08:35:51.374Z,50.19
2018-12-06T08:38:21.619Z,49.60
2018-12-06T08:40:50.086Z,49.52
2018-12-06T08:43:18.892Z,48.95
2018-12-06T08:45:51.629Z,49.76
2018-12-06T08:48:27.170Z,49.04
2018-12-06T08:50:55.590Z,48.77
2018-12-06T08:53:23.958Z,49.83
2018-12-06T08:55:53.672Z,49.79
2018-12-06T08:58:22.323Z,49.10
2018-12-06T09:00:54.079Z,49.82
2018-12-06T09:03:22.926Z,49.15
2018-12-06T09:05:51.246Z,50.27
2018-12-06T09:08:19.642Z,49.62
2018-12-06T09:10:51.497Z,49.35
2018-12-06T09:13:18.365Z,48.66
2018-12-06T09:15:46.664Z,48.47
2018-12-06T09:18:15.103Z,48.68
2018-12-06T09:20:43.545Z,48.87
2018-12-06T09:23:12.819Z,48.80
2018-12-06T09:25:41.464Z,48.72
2018-12-06T09:28:10.755Z,49.20
2018-12-06T09:30:42.751Z,49.32
2018-12-06T09:33:11.201Z,49.28
2018-12-06T09:35:41.173Z,48.88
2018-12-06T09:38:09.416Z,49.00
2018-12-06T09:40:38.100Z,48.95
2018-12-06T09:43:06.564Z,48.55
2018-12-06T09:45:35.062Z,48.25
2018-12-06T09:48:03.367Z,48.08
2018-12-06T09:50:33.206Z,48.40
2018-12-06T09:53:01.509Z,47.74
2018-12-06T09:55:29.788Z,48.38
2018-12-06T09:57:58.118Z,48.26
2018-12-06T10:00:27.434Z,48.42
2018-12-06T10:02:56.044Z,48.13
2018-12-06T10:05:24.375Z,48.25
2018-12-06T10:07:52.750Z,48.53
2018-12-06T10:10:23.066Z,48.00
2018-12-06T10:12:51.416Z,48.03
2018-12-06T10:15:20.948Z,47.36
2018-12-06T10:17:51.223Z,47.79
2018-12-06T10:20:19.649Z,47.89
2018-12-06T10:22:48.152Z,48.38
2018-12-06T10:25:17.992Z,48.30
2018-12-06T10:27:46.316Z,47.85
2018-12-06T10:30:14.671Z,47.86
2018-12-06T10:32:43.031Z,47.78
2018-12-06T10:35:12.251Z,47.41
2018-12-06T10:37:40.640Z,47.54
2018-12-06T10:40:09.340Z,47.15
2018-12-06T10:42:37.649Z,46.56
2018-12-06T10:45:07.204Z,47.29
2018-12-06T10:47:35.800Z,48.98
2018-12-06T10:50:05.106Z,48.80
2018-12-06T10:52:35.121Z,49.44
2018-12-06T10:55:08.599Z,49.34
2018-12-06T10:57:41.222Z,50.32
2018-12-06T11:00:14.859Z,52.70
2018-12-06T11:02:49.484Z,53.41
2018-12-06T11:05:18.256Z,54.58
2018-12-06T11:07:46.935Z,53.29
2018-12-06T11:10:15.906Z,57.10
2018-12-06T11:12:44.238Z,56.24
2018-12-06T11:15:12.765Z,56.47
2018-12-06T11:17:41.198Z,56.75
2018-12-06T11:20:09.592Z,54.20
2018-12-06T11:22:42.467Z,54.93
2018-12-06T11:25:10.886Z,53.85
2018-12-06T11:27:39.283Z,52.90
2018-12-06T11:30:08.010Z,52.55
2018-12-06T11:32:36.399Z,53.07
2018-12-06T11:35:04.978Z,52.36
2018-12-06T11:37:35.246Z,53.95
2018-12-06T11:40:03.837Z,52.77
2018-12-06T11:42:32.134Z,52.24
2018-12-06T11:45:00.692Z,53.44
2018-12-06T11:47:31.111Z,51.41
2018-12-06T11:49:59.420Z,52.17
2018-12-06T11:52:27.821Z,54.11
2018-12-06T11:54:56.348Z,54.58
2018-12-06T11:57:27.896Z,53.56
2018-12-06T11:59:56.206Z,53.75
2018-12-06T12:02:24.612Z,54.01
2018-12-06T12:04:53.406Z,53.52
2018-12-06T12:07:22.460Z,53.42
2018-12-06T12:09:51.058Z,54.13
2018-12-06T12:12:19.336Z,54.09
2018-12-06T12:14:47.779Z,54.39
2018-12-06T12:17:16.274Z,51.47
2018-12-06T12:19:45.145Z,51.32
2018-12-06T12:22:14.438Z,54.30
2018-12-06T12:24:43.337Z,52.15
2018-12-06T12:27:12.252Z,52.43
2018-12-06T12:29:41.210Z,52.64
2018-12-06T12:32:10.631Z,51.33
2018-12-06T12:34:39.056Z,51.55
2018-12-06T12:37:07.443Z,53.86
2018-12-06T12:39:36.042Z,51.40
2018-12-06T12:42:05.507Z,50.17
2018-12-06T12:44:33.810Z,50.03
2018-12-06T12:47:04.739Z,47.71
2018-12-06T12:49:33.036Z,48.92
2018-12-06T12:52:01.331Z,47.64
2018-12-06T12:54:29.649Z,47.51
2018-12-06T12:56:58.868Z,48.70
2018-12-06T12:59:27.274Z,48.46
2018-12-06T13:01:57.831Z,48.45
2018-12-06T13:04:26.828Z,48.61
2018-12-06T13:06:55.183Z,49.01
2018-12-06T13:09:23.542Z,49.19
2018-12-06T13:11:51.863Z,47.79
2018-12-06T13:14:20.223Z,46.32
2018-12-06T13:16:48.521Z,44.64
2018-12-06T13:19:16.999Z,42.71
2018-12-06T13:21:45.383Z,41.56
2018-12-06T13:24:13.718Z,40.26
2018-12-06T13:26:42.087Z,41.19
2018-12-06T13:29:10.653Z,39.86
2018-12-06T13:31:38.978Z,41.33
2018-12-06T13:34:11.153Z,41.58
2018-12-06T13:36:44.734Z,44.95
2018-12-06T13:39:13.162Z,48.48
2018-12-06T13:41:42.071Z,48.57
2018-12-06T13:44:10.419Z,45.84
2018-12-06T13:46:38.902Z,43.35
2018-12-06T13:49:07.750Z,45.60
2018-12-06T13:51:36.014Z,45.34
2018-12-06T13:54:05.241Z,43.01
2018-12-06T13:56:34.123Z,43.43
2018-12-06T13:59:04.230Z,44.79
2018-12-06T14:01:32.571Z,43.93
2018-12-06T14:04:01.117Z,43.71
2018-12-06T14:06:29.727Z,44.49
2018-12-06T14:08:58.521Z,47.60
2018-12-06T14:11:26.865Z,45.83
2018-12-06T14:13:55.611Z,45.60
2018-12-06T14:16:24.084Z,46.44
2018-12-06T14:18:52.460Z,47.00
2018-12-06T14:21:20.794Z,46.70
2018-12-06T14:23:49.178Z,43.43
2018-12-06T14:26:17.661Z,43.26
2018-12-06T14:28:46.457Z,43.68
2018-12-06T14:31:14.762Z,44.92
2018-12-06T14:33:44.035Z,44.34
2018-12-06T14:36:14.782Z,44.07
2018-12-06T14:38:43.142Z,45.18
2018-12-06T14:41:11.490Z,45.75
2018-12-06T14:43:39.823Z,46.77
2018-12-06T14:46:08.824Z,47.72
2018-12-06T14:48:37.196Z,46.64
2018-12-06T14:51:07.445Z,45.59
2018-12-06T14:53:35.751Z,46.28
2018-12-06T14:56:07.773Z,47.21
2018-12-06T14:58:36.213Z,46.94
2018-12-06T15:01:04.554Z,45.85
2018-12-06T15:03:32.933Z,46.62
2018-12-06T15:06:01.467Z,47.10
2018-12-06T15:08:29.854Z,48.14
2018-12-06T15:10:58.307Z,49.65
2018-12-06T15:13:26.787Z,48.65
2018-12-06T15:15:55.088Z,48.21
2018-12-06T15:18:23.459Z,49.56
2018-12-06T15:20:51.910Z,48.50
2018-12-06T15:23:20.436Z,47.30
2018-12-06T15:25:48.876Z,49.41
2018-12-06T15:28:17.496Z,48.79
2018-12-06T15:30:46.138Z,47.98
2018-12-06T15:33:14.942Z,48.93
2018-12-06T15:35:43.725Z,48.45
2018-12-06T15:38:12.076Z,49.31
2018-12-06T15:40:40.414Z,49.43
2018-12-06T15:43:08.998Z,49.51
2018-12-06T15:45:37.780Z,49.84
2018-12-06T15:48:07.011Z,51.41
2018-12-06T15:50:36.371Z,49.79
2018-12-06T15:53:05.545Z,51.44
2018-12-06T15:55:33.866Z,50.06
2018-12-06T15:58:02.203Z,50.89
2018-12-06T16:00:30.616Z,51.13
2018-12-06T16:02:59.037Z,49.80
2018-12-06T16:05:27.394Z,49.72
2018-12-06T16:07:55.706Z,49.43
2018-12-06T16:10:24.095Z,48.42
2018-12-06T16:12:52.506Z,47.61
2018-12-06T16:15:20.898Z,47.66
2018-12-06T16:17:49.446Z,48.73
2018-12-06T16:20:18.631Z,49.13
2018-12-06T16:22:46.942Z,48.01
2018-12-06T16:25:15.267Z,48.41
2018-12-06T16:27:45.133Z,48.60
2018-12-06T16:30:15.487Z,49.30
2018-12-06T16:32:44.544Z,48.29
2018-12-06T16:35:17.657Z,48.12
2018-12-06T16:37:46.065Z,47.86
2018-12-06T16:40:14.623Z,47.17
2018-12-06T16:42:43.420Z,46.81
2018-12-06T16:45:11.738Z,46.45
2018-12-06T16:47:47.498Z,47.38
2018-12-06T16:50:15.883Z,48.22
2018-12-06T16:52:44.240Z,47.39
2018-12-06T16:55:13.455Z,47.80
2018-12-06T16:57:41.903Z,48.00
2018-12-06T17:00:14.593Z,47.67
2018-12-06T17:02:43.158Z,48.28
2018-12-06T17:05:11.497Z,48.67
2018-12-06T17:07:39.934Z,48.57
2018-12-06T17:10:12.946Z,47.99
2018-12-06T17:12:41.248Z,48.08
2018-12-06T17:15:09.661Z,48.64
2018-12-06T17:17:38.083Z,49.55
2018-12-06T17:20:07.557Z,50.80
2018-12-06T17:22:35.911Z,50.60
2018-12-06T17:25:04.850Z,51.23
2018-12-06T17:27:33.291Z,50.36
2018-12-06T17:30:01.994Z,51.53
2018-12-06T17:32:30.906Z,50.17
2018-12-06T17:34:59.546Z,49.75
2018-12-06T17:37:28.971Z,49.95
2018-12-06T17:39:57.319Z,50.32
2018-12-06T17:42:25.715Z,50.74
2018-12-06T17:44:54.092Z,50.57
2018-12-06T17:47:22.790Z,50.10
2018-12-06T17:49:51.958Z,51.40
2018-12-06T17:52:20.599Z,50.44
2018-12-06T17:54:48.939Z,49.59
2018-12-06T17:57:18.226Z,50.57
2018-12-06T17:59:46.594Z,49.25
2018-12-06T18:02:15.297Z,49.69
2018-12-06T18:04:43.639Z,49.80
2018-12-06T18:07:12.035Z,50.53
2018-12-06T18:09:40.663Z,50.54
2018-12-06T18:12:08.978Z,50.01
2018-12-06T18:14:40.044Z,52.28
2018-12-06T18:17:08.735Z,51.65
2018-12-06T18:19:37.094Z,51.37
2018-12-06T18:22:05.473Z,51.46
2018-12-06T18:24:33.849Z,52.43
2018-12-06T18:27:02.246Z,51.53
2018-12-06T18:29:30.810Z,52.22
2018-12-06T18:31:59.444Z,53.93
2018-12-06T18:34:28.048Z,53.66
2018-12-06T18:37:00.331Z,53.36
2018-12-06T18:39:29.492Z,53.56
2018-12-06T18:42:01.533Z,53.92
2018-12-06T18:44:29.959Z,53.76
2018-12-06T18:46:59.122Z,52.43
2018-12-06T18:49:27.398Z,51.86
2018-12-06T18:52:00.201Z,52.99
2018-12-06T18:54:28.591Z,52.57
2018-12-06T18:56:57.391Z,50.66
2018-12-06T18:59:25.716Z,52.25
2018-12-06T19:01:54.143Z,52.62
2018-12-06T19:04:22.759Z,53.40
2018-12-06T19:06:51.188Z,50.90
2018-12-06T19:09:19.508Z,51.15
2018-12-06T19:11:48.207Z,50.30
2018-12-06T19:14:21.732Z,49.70
2018-12-06T19:16:47.128Z,49.08
2018-12-06T19:19:15.449Z,50.30
2018-12-06T19:21:48.149Z,50.60
2018-12-06T19:24:17.104Z,50.35
2018-12-06T19:26:45.637Z,50.95
2018-12-06T19:29:14.100Z,49.50
2018-12-06T19:31:42.812Z,48.89
2018-12-06T19:34:11.596Z,48.72
2018-12-06T19:36:40.270Z,48.97
2018-12-06T19:39:10.033Z,49.88
2018-12-06T19:41:56.275Z,49.08
2018-12-06T19:44:25.362Z,50.86
2018-12-06T19:46:53.822Z,49.67
2018-12-06T19:49:22.501Z,50.37
2018-12-06T19:51:52.427Z,52.23
2018-12-06T19:54:20.731Z,52.47
2018-12-06T19:56:50.000Z,52.25
2018-12-06T19:59:18.291Z,52.38
2018-12-06T20:01:47.503Z,52.85
2018-12-06T20:04:15.783Z,53.06
2018-12-06T20:06:46.417Z,54.05
2018-12-06T20:09:15.297Z,52.03
2018-12-06T20:11:43.618Z,52.98
2018-12-06T20:14:12.203Z,51.34
2018-12-06T20:16:40.544Z,50.54
2018-12-06T20:19:08.867Z,53.25
2018-12-06T20:21:37.598Z,52.80
2018-12-06T20:24:06.008Z,52.68
2018-12-06T20:26:34.352Z,53.23
2018-12-06T20:29:02.631Z,52.54
2018-12-06T20:31:31.093Z,53.48
2018-12-06T20:34:00.042Z,52.89
2018-12-06T20:36:28.372Z,52.38
2018-12-06T20:38:56.636Z,51.16
2018-12-06T20:41:24.982Z,52.75
2018-12-06T20:43:53.267Z,53.34
2018-12-06T20:46:21.624Z,52.76
2018-12-06T20:48:49.941Z,53.13
2018-12-06T20:51:18.380Z,52.25
2018-12-06T20:53:46.667Z,51.59
2018-12-06T20:56:15.092Z,51.57
2018-12-06T20:58:43.486Z,52.27
2018-12-06T21:01:11.959Z,52.79
2018-12-06T21:03:40.357Z,54.11
2018-12-06T21:06:08.865Z,51.96
2018-12-06T21:08:37.163Z,53.29
2018-12-06T21:11:05.474Z,53.58
2018-12-06T21:13:34.072Z,53.93
2018-12-06T21:16:02.550Z,54.16
2018-12-06T21:18:30.921Z,53.24
2018-12-06T21:21:00.451Z,52.25
2018-12-06T21:23:30.144Z,51.41
2018-12-06T21:25:58.682Z,53.81
2018-12-06T21:28:27.351Z,52.91
2018-12-06T21:30:56.421Z,52.95
2018-12-06T21:33:27.181Z,51.98
2018-12-06T21:35:55.792Z,50.80
2018-12-06T21:38:24.395Z,51.91
2018-12-06T21:40:56.314Z,51.12
2018-12-06T21:43:24.913Z,50.79
2018-12-06T21:45:54.305Z,51.28
2018-12-06T21:48:24.435Z,51.01
2018-12-06T21:51:02.084Z,49.87
2018-12-06T21:53:31.277Z,50.31
2018-12-06T21:56:06.897Z,50.85
2018-12-06T21:58:38.438Z,49.21
2018-12-06T22:01:09.658Z,50.89
2018-12-06T22:03:39.452Z,51.21
2018-12-06T22:06:07.830Z,49.85
2018-12-06T22:08:36.098Z,50.07
2018-12-06T22:11:09.293Z,50.88
2018-12-06T22:13:39.715Z,51.21
2018-12-06T22:16:08.108Z,53.21
2018-12-06T22:18:36.806Z,52.39
2018-12-06T22:21:05.196Z,51.64
2018-12-06T22:23:33.506Z,51.27
2018-12-06T22:26:01.927Z,52.53
2018-12-06T22:28:34.030Z,52.63
2018-12-06T22:31:01.534Z,54.12
2018-12-06T22:33:31.264Z,53.62
2018-12-06T22:36:00.174Z,51.91
2018-12-06T22:38:34.028Z,52.94
2018-12-06T22:41:00.881Z,53.98
2018-12-06T22:43:29.362Z,54.20
2018-12-06T22:46:00.472Z,54.77
2018-12-06T22:48:29.086Z,54.73
2018-12-06T22:50:57.358Z,52.64
2018-12-06T22:53:25.690Z,52.49
2018-12-06T22:55:54.057Z,53.50
2018-12-06T22:58:22.481Z,54.01
2018-12-06T23:00:56.486Z,54.50
2018-12-06T23:03:24.888Z,55.39
2018-12-06T23:05:54.134Z,54.30
2018-12-06T23:08:22.795Z,53.09
2018-12-06T23:10:51.249Z,53.76
2018-12-06T23:13:19.620Z,53.31
2018-12-06T23:15:47.911Z,52.20
2018-12-06T23:18:16.307Z,52.56
2018-12-06T23:20:44.709Z,54.34
2018-12-06T23:23:13.203Z,54.56
2018-12-06T23:25:41.488Z,55.18
2018-12-06T23:28:09.996Z,54.93
2018-12-06T23:30:38.561Z,55.48
2018-12-06T23:33:07.046Z,54.94
2018-12-06T23:35:35.466Z,54.74
2018-12-06T23:38:03.753Z,54.22
2018-12-06T23:40:32.283Z,54.52
2018-12-06T23:43:00.593Z,56.20
2018-12-06T23:45:29.090Z,55.42
2018-12-06T23:47:57.379Z,54.36
2018-12-06T23:50:25.875Z,53.83
2018-12-06T23:52:54.164Z,53.60
2018-12-06T23:55:22.508Z,53.24
2018-12-06T23:57:50.955Z,52.45
